KOBE/OBE METAR and TAF weather

Enter ICAO airport designator
Station Type Date Time Source
KOBE METAR 2019/10/14 05:35 UTC NOAA

KOBE 140535Z AUTO 00000KT 10SM OVC065 22/20 A3003 RMK AO2


Station Type Date Time Source
KOBE Decoded METAR 2019/10/14 05:35 UTC NOAA

Okeechobee County Airport, FL, United States (KOBE) 27-15-60N 080-51-02W
Oct 14, 2019 - 01:35 AM EDT / 2019.10.14 0535 UTC
Wind: Calm:0
Visibility: 10 mile(s):0
Sky conditions: overcast
Temperature: 71 F (22 C)
Dew Point: 68 F (20 C)
Relative Humidity: 88%
Pressure (altimeter): 30.03 in. Hg (1016 hPa)
ob: KOBE 140535Z AUTO 00000KT 10SM OVC065 22/20 A3003 RMK AO2
cycle: 5

Station Type Date Time Source
KOBE TAF UTC NOAA

Error!

Example: see airport list